createdAt,value
2019-01-21T00:02:05.608Z,-6.44
2019-01-21T00:07:12.738Z,-6.50
2019-01-21T00:12:19.455Z,-6.54
2019-01-21T00:17:24.938Z,-6.58
2019-01-21T00:22:31.470Z,-6.59
2019-01-21T00:27:36.830Z,-6.68
2019-01-21T00:32:42.326Z,-6.71
2019-01-21T00:37:48.027Z,-6.73
2019-01-21T00:42:53.428Z,-6.73
2019-01-21T00:47:58.804Z,-6.71
2019-01-21T00:53:04.417Z,-6.78
2019-01-21T00:58:10.039Z,-6.82
2019-01-21T01:03:15.265Z,-6.85
2019-01-21T01:08:21.138Z,-6.92
2019-01-21T01:13:27.208Z,-6.98
2019-01-21T01:18:32.920Z,-7.01
2019-01-21T01:23:38.226Z,-7.01
2019-01-21T01:28:43.815Z,-6.98
2019-01-21T01:33:49.006Z,-6.97
2019-01-21T01:38:54.713Z,-6.96
2019-01-21T01:44:00.176Z,-7.04
2019-01-21T01:49:06.382Z,-7.07
2019-01-21T01:54:11.690Z,-7.11
2019-01-21T01:59:16.875Z,-7.17
2019-01-21T02:04:22.591Z,-7.18
2019-01-21T02:09:27.780Z,-7.15
2019-01-21T02:14:33.285Z,-7.25
2019-01-21T02:19:39.809Z,-7.30
2019-01-21T02:24:44.959Z,-7.35
2019-01-21T02:30:15.943Z,-7.41
2019-01-21T02:35:30.615Z,-7.46
2019-01-21T02:41:35.003Z,-7.49
2019-01-21T02:46:58.329Z,-7.54
2019-01-21T02:52:38.582Z,-7.60
2019-01-21T02:58:42.948Z,-7.63
2019-01-21T03:04:35.211Z,-7.64
2019-01-21T03:10:05.300Z,-7.69
2019-01-21T03:15:57.961Z,-7.69
2019-01-21T03:21:23.233Z,-7.71
2019-01-21T03:27:05.774Z,-7.70
2019-01-21T03:33:07.160Z,-7.69
2019-01-21T03:38:52.179Z,-7.62
2019-01-21T03:44:41.414Z,-7.57
2019-01-21T03:50:23.647Z,-7.53
2019-01-21T03:55:30.247Z,-7.52
2019-01-21T04:00:54.544Z,-7.52
2019-01-21T04:06:43.640Z,-7.61
2019-01-21T04:12:05.139Z,-7.59
2019-01-21T04:18:06.031Z,-7.64
2019-01-21T04:23:49.054Z,-7.61
2019-01-21T04:29:07.721Z,-7.71
2019-01-21T04:34:53.325Z,-7.82
2019-01-21T04:40:21.724Z,-7.88
2019-01-21T04:46:00.047Z,-7.90
2019-01-21T04:51:49.077Z,-8.03
2019-01-21T04:57:17.830Z,-8.15
2019-01-21T05:03:04.188Z,-8.27
2019-01-21T05:09:02.106Z,-8.24
2019-01-21T05:14:48.482Z,-8.26
2019-01-21T05:20:24.556Z,-8.31
2019-01-21T05:25:50.085Z,-8.36
2019-01-21T05:31:36.326Z,-8.42
2019-01-21T05:37:25.776Z,-8.49
2019-01-21T05:43:16.685Z,-8.52
2019-01-21T05:49:09.499Z,-8.49
2019-01-21T05:54:51.897Z,-8.51
2019-01-21T06:00:44.646Z,-8.51
2019-01-21T06:06:09.403Z,-8.47
2019-01-21T06:12:05.885Z,-8.50
2019-01-21T06:17:23.232Z,-8.51
2019-01-21T06:23:15.792Z,-8.54
2019-01-21T06:28:55.217Z,-8.60
2019-01-21T06:34:48.476Z,-8.64
2019-01-21T06:40:37.780Z,-8.67
2019-01-21T06:46:23.223Z,-8.71
2019-01-21T06:51:42.940Z,-8.71
2019-01-21T06:57:12.432Z,-8.70
2019-01-21T07:02:32.010Z,-8.71
2019-01-21T07:08:24.364Z,-8.73
2019-01-21T07:14:10.460Z,-8.77
2019-01-21T07:20:12.022Z,-8.81
2019-01-21T07:25:57.827Z,-8.82
2019-01-21T07:31:46.965Z,-8.88
2019-01-21T07:37:36.198Z,-8.83
2019-01-21T07:43:24.695Z,-8.81
2019-01-21T07:49:06.499Z,-8.79
2019-01-21T07:54:27.614Z,-8.76
2019-01-21T08:00:12.303Z,-8.73
2019-01-21T08:05:55.181Z,-8.65
2019-01-21T08:11:26.286Z,-8.56
2019-01-21T08:17:12.642Z,-8.50
2019-01-21T08:22:59.791Z,-8.46
2019-01-21T08:28:38.283Z,-8.38
2019-01-21T08:34:00.357Z,-8.29
2019-01-21T08:39:37.350Z,-8.23
2019-01-21T08:45:19.610Z,-8.17
2019-01-21T08:51:12.103Z,-8.05
2019-01-21T08:57:28.706Z,-7.87
2019-01-21T09:02:50.415Z,-7.73
2019-01-21T09:08:37.577Z,-7.57
2019-01-21T09:14:23.143Z,-7.37
2019-01-21T09:20:11.290Z,-7.23
2019-01-21T09:25:43.072Z,-7.06
2019-01-21T09:31:20.492Z,-6.88
2019-01-21T09:37:09.775Z,-6.74
2019-01-21T09:42:46.178Z,-6.62
2019-01-21T09:47:49.808Z,-6.23
2019-01-21T09:52:56.080Z,-5.98
2019-01-21T09:58:07.835Z,-5.78
2019-01-21T10:03:13.886Z,-5.72
2019-01-21T10:08:31.263Z,-5.59
2019-01-21T10:14:03.445Z,-5.37
2019-01-21T10:19:41.037Z,-5.28
2019-01-21T10:25:23.414Z,-5.25
2019-01-21T10:30:53.158Z,-4.90
2019-01-21T10:36:40.801Z,-4.64
2019-01-21T10:41:52.092Z,-4.57
2019-01-21T10:47:08.425Z,-4.44
2019-01-21T10:53:00.594Z,-4.33
2019-01-21T10:58:30.527Z,-4.10
2019-01-21T11:04:01.690Z,-4.07
2019-01-21T11:09:43.744Z,-3.95
2019-01-21T11:15:32.808Z,-3.81
2019-01-21T11:21:02.471Z,-3.71
2019-01-21T11:27:03.524Z,-3.65
2019-01-21T11:32:42.182Z,-3.57
2019-01-21T11:38:17.322Z,-3.43
2019-01-21T11:43:37.886Z,-3.24
2019-01-21T11:48:59.496Z,-3.10
2019-01-21T11:54:19.707Z,-2.89
2019-01-21T12:00:07.302Z,-2.76
2019-01-21T12:05:31.210Z,-2.67
2019-01-21T12:11:17.353Z,-2.54
2019-01-21T12:17:17.943Z,-2.38
2019-01-21T12:22:50.613Z,-2.42
2019-01-21T12:28:15.706Z,-2.23
2019-01-21T12:34:01.128Z,-2.15
2019-01-21T12:39:55.648Z,-2.03
2019-01-21T12:45:28.851Z,-1.92
2019-01-21T12:51:21.073Z,-1.79
2019-01-21T12:56:46.851Z,-1.63
2019-01-21T13:02:30.744Z,-1.56
2019-01-21T13:08:06.576Z,-1.35
2019-01-21T13:13:48.392Z,-1.15
2019-01-21T13:19:23.781Z,-0.68
2019-01-21T13:24:56.240Z,-0.38
2019-01-21T13:30:31.646Z,-0.86
2019-01-21T13:36:35.534Z,-0.70
2019-01-21T13:41:58.918Z,-0.92
2019-01-21T13:47:50.007Z,-0.95
2019-01-21T13:53:39.639Z,-0.91
2019-01-21T13:59:22.795Z,-0.41
2019-01-21T14:05:11.034Z,-0.33
2019-01-21T14:10:53.357Z,-0.59
2019-01-21T14:16:23.819Z,-0.57
2019-01-21T14:21:57.622Z,-0.32
2019-01-21T14:27:41.178Z,0.02
2019-01-21T14:33:12.388Z,-0.14
2019-01-21T14:38:42.099Z,-0.36
2019-01-21T14:44:15.414Z,-0.01
2019-01-21T14:49:41.146Z,0.21
2019-01-21T14:55:11.400Z,0.19
2019-01-21T15:00:48.992Z,0.16
2019-01-21T15:06:32.365Z,-0.24
2019-01-21T15:12:14.571Z,-0.69
2019-01-21T15:17:47.753Z,-1.18
2019-01-21T15:23:49.055Z,-1.50
2019-01-21T15:29:16.123Z,-1.72
2019-01-21T15:35:07.261Z,-1.89
2019-01-21T15:40:42.339Z,-2.07
2019-01-21T15:46:11.297Z,-2.26
2019-01-21T15:52:02.562Z,-2.44
2019-01-21T15:57:30.432Z,-2.54
2019-01-21T16:03:19.521Z,-2.64
2019-01-21T16:08:39.524Z,-2.72
2019-01-21T16:14:01.512Z,-2.88
2019-01-21T16:19:10.836Z,-3.05
2019-01-21T16:24:48.718Z,-3.12
2019-01-21T16:30:01.413Z,-3.19
2019-01-21T16:35:45.105Z,-3.37
2019-01-21T16:41:22.314Z,-3.48
2019-01-21T16:46:27.881Z,-3.59
2019-01-21T16:51:33.065Z,-3.62
2019-01-21T16:56:38.282Z,-3.67
2019-01-21T17:01:44.212Z,-3.84
2019-01-21T17:06:51.299Z,-3.97
2019-01-21T17:11:56.581Z,-4.06
2019-01-21T17:17:01.783Z,-4.11
2019-01-21T17:22:07.394Z,-4.19
2019-01-21T17:27:12.892Z,-4.23
2019-01-21T17:32:18.094Z,-4.29
2019-01-21T17:37:23.941Z,-4.33
2019-01-21T17:42:29.178Z,-4.35
2019-01-21T17:47:34.365Z,-4.42
2019-01-21T17:52:39.586Z,-4.45
2019-01-21T17:57:46.188Z,-4.54
2019-01-21T18:02:51.395Z,-4.55
2019-01-21T18:07:56.802Z,-4.62
2019-01-21T18:13:02.128Z,-4.65
2019-01-21T18:18:07.712Z,-4.73
2019-01-21T18:23:13.463Z,-4.77
2019-01-21T18:28:18.688Z,-4.82
2019-01-21T18:33:23.853Z,-4.87
2019-01-21T18:38:30.339Z,-4.91
2019-01-21T18:43:38.835Z,-4.93
2019-01-21T18:48:44.358Z,-4.91
2019-01-21T18:53:51.112Z,-4.95
2019-01-21T18:58:57.297Z,-4.99
2019-01-21T19:04:02.623Z,-4.99
2019-01-21T19:09:09.388Z,-4.93
2019-01-21T19:14:15.063Z,-4.90
2019-01-21T19:19:20.636Z,-4.89
2019-01-21T19:24:25.903Z,-4.92
2019-01-21T19:29:32.163Z,-4.92
2019-01-21T19:34:37.746Z,-4.97
2019-01-21T19:39:43.054Z,-5.10
2019-01-21T19:44:48.322Z,-5.41
2019-01-21T19:49:53.936Z,-5.82
2019-01-21T19:54:59.252Z,-5.87
2019-01-21T20:00:05.537Z,-5.93
2019-01-21T20:05:11.302Z,-6.12
2019-01-21T20:10:19.082Z,-6.24
2019-01-21T20:15:25.841Z,-6.30
2019-01-21T20:20:33.531Z,-6.37
2019-01-21T20:25:38.746Z,-6.44
2019-01-21T20:30:43.944Z,-6.46
2019-01-21T20:35:49.173Z,-6.45
2019-01-21T20:40:55.131Z,-6.48
2019-01-21T20:46:00.323Z,-6.54
2019-01-21T20:51:05.543Z,-6.58
2019-01-21T20:56:11.458Z,-6.56
2019-01-21T21:01:19.272Z,-6.56
2019-01-21T21:06:24.486Z,-6.43
2019-01-21T21:11:30.210Z,-6.35
2019-01-21T21:16:35.742Z,-6.39
2019-01-21T21:21:41.815Z,-6.41
2019-01-21T21:26:47.505Z,-6.47
2019-01-21T21:31:52.756Z,-6.51
2019-01-21T21:36:58.295Z,-6.54
2019-01-21T21:42:03.514Z,-6.56
2019-01-21T21:47:08.791Z,-6.59
2019-01-21T21:52:14.780Z,-6.60
2019-01-21T21:57:20.160Z,-6.62
2019-01-21T22:02:25.466Z,-6.61
2019-01-21T22:07:31.037Z,-6.65
2019-01-21T22:12:36.669Z,-6.68
2019-01-21T22:17:42.144Z,-6.71
2019-01-21T22:22:47.336Z,-6.75
2019-01-21T22:27:52.928Z,-6.76
2019-01-21T22:32:58.632Z,-6.76
2019-01-21T22:38:04.135Z,-6.81
2019-01-21T22:43:09.348Z,-6.88
2019-01-21T22:48:15.768Z,-6.92
2019-01-21T22:53:21.296Z,-6.95
2019-01-21T22:58:26.588Z,-6.95
2019-01-21T23:03:32.353Z,-6.90
2019-01-21T23:08:37.547Z,-6.86
2019-01-21T23:13:42.825Z,-6.89
2019-01-21T23:18:48.017Z,-6.98
2019-01-21T23:23:53.580Z,-7.04
2019-01-21T23:28:58.820Z,-7.12
2019-01-21T23:34:04.624Z,-7.10
2019-01-21T23:39:09.827Z,-7.10
2019-01-21T23:44:15.349Z,-7.13
2019-01-21T23:49:20.535Z,-7.17
2019-01-21T23:54:26.042Z,-7.22
2019-01-21T23:59:31.636Z,-7.24
